Time;durP1;ratioP1;P1;durP2;ratioP2;P2;SDS_P1;SDS_P2;PMS_P1;PMS_P2;Temp;Humidity;BMP_temperature;BMP_pressure;BME280_temperature;BME280_humidity;BME280_pressure;Samples;Min_cycle;Max_cycle;Signal;HPM_P1;HPM_P2
2022/04/08 00:00:02;;;;;;;;;;;;;;;;;;5097989;28;19920;-48
2022/04/08 00:02:27;;;;;;;;;;;;;;;;;;5098209;28;19908;-48
2022/04/08 00:04:52;;;;;;;;;;;;;;;;;;5098254;28;19915;-47
2022/04/08 00:07:17;;;;;;;;;;;;;;;;;;5080201;28;19920;-48
2022/04/08 00:09:43;;;;;;;;;;;;;;;;;;5097914;28;19912;-48
2022/04/08 00:12:08;;;;;;;;;;;;;;;;;;5098154;28;20017;-48
2022/04/08 00:14:33;;;;;;;;;;;;;;;;;;5100210;28;19964;-49
2022/04/08 00:16:58;;;;;;;;;;;;;;;;;;5118397;28;19927;-47
2022/04/08 00:19:24;;;;;;;;;;;;;;;;;;5118736;28;19908;-48
2022/04/08 00:21:49;;;;;;;;;;;;;;;;;;5118427;28;19943;-48
2022/04/08 00:24:14;;;;;;;;;;;;;;;;;;5118540;28;19915;-49
2022/04/08 00:26:39;;;;;;;;;;;;;;;;;;5118835;28;19965;-49
2022/04/08 00:29:04;;;;;;;;;;;;;;;;;;5118193;28;19915;-48
2022/04/08 00:31:29;;;;;;;;;;;;;;;;;;5118507;28;19915;-48
2022/04/08 00:33:54;;;;;;;;;;;;;;;;;;5118078;28;19918;-48
2022/04/08 00:36:20;;;;;;;;;;;;;;;;;;5118089;28;19911;-48
2022/04/08 00:38:45;;;;;;;;;;;;;;;;;;5118132;28;20000;-48
2022/04/08 00:41:10;;;;;;;;;;;;;;;;;;5105247;28;19931;-48
2022/04/08 00:43:35;;;;;;;;;;;;;;;;;;5077408;28;19915;-48
2022/04/08 00:46:00;;;;;;;;;;;;;;;;;;5077355;28;19908;-47
2022/04/08 00:48:26;;;;;;;;;;;;;;;;;;5077241;28;19999;-47
2022/04/08 00:50:51;;;;;;;;;;;;;;;;;;5077190;28;19918;-48
2022/04/08 00:53:16;;;;;;;;;;;;;;;;;;5077270;28;19943;-47
2022/04/08 00:55:41;;;;;;;;;;;;;;;;;;5077045;28;19952;-48
2022/04/08 00:58:06;;;;;;;;;;;;;;;;;;5082641;28;19965;-47
2022/04/08 01:00:31;;;;;;;;;;;;;;;;;;5117354;28;19969;-49
2022/04/08 01:02:57;;;;;;;;;;;;;;;;;;5117389;28;20354;-48
2022/04/08 01:05:22;;;;;;;;;;;;;;;;;;5117425;28;19908;-48
2022/04/08 01:07:47;;;;;;;;;;;;;;;;;;5117648;28;19915;-48
2022/04/08 01:10:12;;;;;;;;;;;;;;;;;;5117355;28;19912;-48
2022/04/08 01:12:37;;;;;;;;;;;;;;;;;;5117350;28;19998;-48
2022/04/08 01:15:02;;;;;;;;;;;;;;;;;;5116867;28;19976;-48
2022/04/08 01:17:27;;;;;;;;;;;;;;;;;;5117151;28;19915;-50
2022/04/08 01:19:52;;;;;;;;;;;;;;;;;;5117006;28;20427;-49
2022/04/08 01:22:17;;;;;;;;;;;;;;;;;;5117514;28;19908;-49
2022/04/08 01:24:43;;;;;;;;;;;;;;;;;;5117165;28;19904;-50
2022/04/08 01:27:08;;;;;;;;;;;;;;;;;;5117274;28;19915;-49
2022/04/08 01:29:33;;;;;;;;;;;;;;;;;;5117044;28;20002;-49
2022/04/08 01:31:58;;;;;;;;;;;;;;;;;;5117400;28;19930;-47
2022/04/08 01:34:23;;;;;;;;;;;;;;;;;;5116876;28;19919;-48
2022/04/08 01:36:48;;;;;;;;;;;;;;;;;;5117032;28;19911;-48
2022/04/08 01:39:13;;;;;;;;;;;;;;;;;;5117038;28;19908;-48
2022/04/08 01:41:38;;;;;;;;;;;;;;;;;;5098447;28;20349;-48
2022/04/08 01:44:03;;;;;;;;;;;;;;;;;;5116837;28;19908;-48
2022/04/08 01:46:28;;;;;;;;;;;;;;;;;;5116944;28;19908;-47
2022/04/08 01:48:54;;;;;;;;;;;;;;;;;;5116716;28;19908;-48
2022/04/08 01:51:20;;;;;;;;;;;;;;;;;;5098262;28;19955;-48
2022/04/08 01:53:45;;;;;;;;;;;;;;;;;;5116495;28;19943;-49
2022/04/08 01:56:10;;;;;;;;;;;;;;;;;;5116334;28;19932;-47
2022/04/08 01:58:35;;;;;;;;;;;;;;;;;;5116104;28;19912;-48
2022/04/08 02:01:01;;;;;;;;;;;;;;;;;;5116427;28;19912;-47
2022/04/08 02:03:27;;;;;;;;;;;;;;;;;;5116321;28;19907;-46
2022/04/08 02:05:52;;;;;;;;;;;;;;;;;;5116363;28;19915;-48
2022/04/08 02:08:17;;;;;;;;;;;;;;;;;;5116362;28;20304;-47
2022/04/08 02:10:42;;;;;;;;;;;;;;;;;;5116380;28;19908;-47
2022/04/08 02:13:08;;;;;;;;;;;;;;;;;;5116203;28;19908;-47
2022/04/08 02:15:33;;;;;;;;;;;;;;;;;;5116128;28;20270;-47
2022/04/08 02:17:58;;;;;;;;;;;;;;;;;;5115967;28;19912;-47
2022/04/08 02:20:23;;;;;;;;;;;;;;;;;;5115522;28;19908;-47
2022/04/08 02:22:49;;;;;;;;;;;;;;;;;;5115936;28;19908;-47
2022/04/08 02:25:14;;;;;;;;;;;;;;;;;;5116055;28;19908;-47
2022/04/08 02:27:39;;;;;;;;;;;;;;;;;;5116160;28;19918;-48
2022/04/08 02:30:04;;;;;;;;;;;;;;;;;;5116028;28;19955;-47
2022/04/08 02:32:29;;;;;;;;;;;;;;;;;;5115921;28;19912;-47
2022/04/08 02:34:54;;;;;;;;;;;;;;;;;;5116143;28;19919;-47
2022/04/08 02:37:20;;;;;;;;;;;;;;;;;;5115931;28;19915;-48
2022/04/08 02:39:45;;;;;;;;;;;;;;;;;;5115826;28;19908;-47
2022/04/08 02:42:10;;;;;;;;;;;;;;;;;;5115681;28;19908;-47
2022/04/08 02:44:35;;;;;;;;;;;;;;;;;;5115890;28;19907;-48
2022/04/08 02:47:00;;;;;;;;;;;;;;;;;;5115701;28;19919;-48
2022/04/08 02:49:25;;;;;;;;;;;;;;;;;;5115755;28;19930;-50
2022/04/08 02:51:50;;;;;;;;;;;;;;;;;;5115603;28;20003;-49
2022/04/08 02:54:16;;;;;;;;;;;;;;;;;;5115655;28;19947;-46
2022/04/08 02:56:41;;;;;;;;;;;;;;;;;;5115507;28;19951;-50
2022/04/08 02:59:06;;;;;;;;;;;;;;;;;;5115398;28;20362;-47
2022/04/08 03:01:31;;;;;;;;;;;;;;;;;;5115314;28;19962;-49
2022/04/08 03:03:56;;;;;;;;;;;;;;;;;;5115348;28;20397;-47
2022/04/08 03:06:22;;;;;;;;;;;;;;;;;;5115327;28;19904;-46
2022/04/08 03:08:47;;;;;;;;;;;;;;;;;;5115276;28;19912;-46
2022/04/08 03:11:12;;;;;;;;;;;;;;;;;;5115407;28;19988;-47
2022/04/08 03:13:37;;;;;;;;;;;;;;;;;;5115232;28;20379;-46
2022/04/08 03:16:02;;;;;;;;;;;;;;;;;;5096965;28;19957;-47
2022/04/08 03:18:28;;;;;;;;;;;;;;;;;;5115161;28;19988;-47
2022/04/08 03:20:53;;;;;;;;;;;;;;;;;;5115287;28;19908;-48
2022/04/08 03:23:18;;;;;;;;;;;;;;;;;;5115193;28;19958;-48
2022/04/08 03:25:43;;;;;;;;;;;;;;;;;;5114913;28;19943;-47
2022/04/08 03:28:08;;;;;;;;;;;;;;;;;;5115023;28;19976;-47
2022/04/08 03:30:33;;;;;;;;;;;;;;;;;;5115274;28;19961;-47
2022/04/08 03:32:58;;;;;;;;;;;;;;;;;;5119459;28;19912;-46
2022/04/08 03:35:23;;;;;;;;;;;;;;;;;;5119176;28;19965;-49
2022/04/08 03:37:48;;;;;;;;;;;;;;;;;;5119225;28;19927;-48
2022/04/08 03:40:14;;;;;;;;;;;;;;;;;;5119159;28;19908;-47
2022/04/08 03:42:39;;;;;;;;;;;;;;;;;;5118943;28;19916;-47
2022/04/08 03:45:05;;;;;;;;;;;;;;;;;;5119097;28;19908;-47
2022/04/08 03:47:30;;;;;;;;;;;;;;;;;;5118923;28;19907;-49
2022/04/08 03:49:55;;;;;;;;;;;;;;;;;;5119090;28;19904;-48
2022/04/08 03:52:20;;;;;;;;;;;;;;;;;;5118902;28;19998;-47
2022/04/08 03:54:45;;;;;;;;;;;;;;;;;;5118854;28;20032;-47
2022/04/08 03:57:10;;;;;;;;;;;;;;;;;;5118615;28;19908;-47
2022/04/08 03:59:37;;;;;;;;;;;;;;;;;;5118530;28;20428;-48
2022/04/08 04:02:05;;;;;;;;;;;;;;;;;;5118535;28;20281;-47
2022/04/08 04:04:30;;;;;;;;;;;;;;;;;;5118561;28;19915;-47
2022/04/08 04:06:55;;;;;;;;;;;;;;;;;;5118574;28;19908;-47
2022/04/08 04:09:20;;;;;;;;;;;;;;;;;;5118589;28;19907;-47
2022/04/08 04:11:46;;;;;;;;;;;;;;;;;;5118677;28;19908;-47
2022/04/08 04:14:11;;;;;;;;;;;;;;;;;;5118531;28;19916;-47
2022/04/08 04:16:36;;;;;;;;;;;;;;;;;;5118540;28;19908;-47
2022/04/08 04:19:01;;;;;;;;;;;;;;;;;;5118594;28;20275;-47
2022/04/08 04:21:26;;;;;;;;;;;;;;;;;;5118522;28;19915;-48
2022/04/08 04:23:51;;;;;;;;;;;;;;;;;;5118707;28;19912;-46
2022/04/08 04:26:16;;;;;;;;;;;;;;;;;;5118645;28;19934;-46
2022/04/08 04:28:41;;;;;;;;;;;;;;;;;;5118421;28;19918;-48
2022/04/08 04:31:07;;;;;;;;;;;;;;;;;;5118371;28;20384;-47
2022/04/08 04:33:32;;;;;;;;;;;;;;;;;;5118383;28;19954;-48
2022/04/08 04:35:57;;;;;;;;;;;;;;;;;;5118084;28;19911;-48
2022/04/08 04:38:22;;;;;;;;;;;;;;;;;;5118035;28;19907;-47
2022/04/08 04:40:47;;;;;;;;;;;;;;;;;;5118147;28;19912;-48
2022/04/08 04:43:13;;;;;;;;;;;;;;;;;;5117470;28;19950;-47
2022/04/08 04:45:39;;;;;;;;;;;;;;;;;;5117846;28;19918;-48
2022/04/08 04:48:04;;;;;;;;;;;;;;;;;;5117908;28;19912;-50
2022/04/08 04:50:29;;;;;;;;;;;;;;;;;;5117832;28;19954;-47
2022/04/08 04:52:54;;;;;;;;;;;;;;;;;;5117717;28;20269;-48
2022/04/08 04:55:19;;;;;;;;;;;;;;;;;;5117732;28;19919;-47
2022/04/08 04:57:44;;;;;;;;;;;;;;;;;;5117917;28;19908;-47
2022/04/08 05:00:10;;;;;;;;;;;;;;;;;;5117444;28;20318;-48
2022/04/08 05:02:35;;;;;;;;;;;;;;;;;;5117629;28;19961;-46
2022/04/08 05:05:00;;;;;;;;;;;;;;;;;;5117502;28;19980;-46
2022/04/08 05:07:25;;;;;;;;;;;;;;;;;;5117510;28;19908;-48
2022/04/08 05:09:50;;;;;;;;;;;;;;;;;;5117498;28;19908;-47
2022/04/08 05:12:15;;;;;;;;;;;;;;;;;;5117351;28;19912;-48
2022/04/08 05:14:40;;;;;;;;;;;;;;;;;;5117306;28;20342;-47
2022/04/08 05:17:05;;;;;;;;;;;;;;;;;;5117301;28;19958;-47
2022/04/08 05:19:30;;;;;;;;;;;;;;;;;;5117384;28;20002;-48
2022/04/08 05:21:56;;;;;;;;;;;;;;;;;;5117354;28;19995;-47
2022/04/08 05:24:21;;;;;;;;;;;;;;;;;;5110890;28;19966;-50
2022/04/08 05:26:46;;;;;;;;;;;;;;;;;;5085683;28;19912;-46
2022/04/08 05:29:11;;;;;;;;;;;;;;;;;;5103488;28;20002;-47
2022/04/08 05:31:36;;;;;;;;;;;;;;;;;;5087934;28;20397;-46
2022/04/08 05:34:01;;;;;;;;;;;;;;;;;;5086057;28;19923;-46
2022/04/08 05:36:26;;;;;;;;;;;;;;;;;;5073245;28;19912;-53
2022/04/08 05:38:51;;;;;;;;;;;;;;;;;;5078317;28;19935;-50
2022/04/08 05:41:16;;;;;;;;;;;;;;;;;;5089891;28;19926;-50
2022/04/08 05:43:44;;;;;;;;;;;;;;;;;;5096814;28;19935;-50
2022/04/08 05:46:09;;;;;;;;;;;;;;;;;;5082866;28;19927;-50
2022/04/08 05:48:34;;;;;;;;;;;;;;;;;;5093279;28;19911;-50
2022/04/08 05:50:59;;;;;;;;;;;;;;;;;;5089297;28;20358;-53
2022/04/08 05:53:26;;;;;;;;;;;;;;;;;;5092526;28;20020;-50
2022/04/08 05:55:51;;;;;;;;;;;;;;;;;;5086681;28;20386;-50
2022/04/08 05:58:16;;;;;;;;;;;;;;;;;;5080332;28;19920;-49
2022/04/08 06:00:42;;;;;;;;;;;;;;;;;;5071992;28;19928;-50
2022/04/08 06:03:07;;;;;;;;;;;;;;;;;;5075705;28;19920;-49
2022/04/08 06:05:32;;;;;;;;;;;;;;;;;;5077353;28;19935;-50
2022/04/08 06:07:57;;;;;;;;;;;;;;;;;;5076403;28;19931;-49
2022/04/08 06:10:23;;;;;;;;;;;;;;;;;;5071271;28;20301;-50
2022/04/08 06:12:48;;;;;;;;;;;;;;;;;;5047135;28;19920;-49
2022/04/08 06:15:13;;;;;;;;;;;;;;;;;;5015291;28;19924;-50
2022/04/08 06:17:38;;;;;;;;;;;;;;;;;;4966005;28;19927;-50
2022/04/08 06:20:03;;;;;;;;;;;;;;;;;;4925641;28;22537;-50
2022/04/08 06:22:28;;;;;;;;;;;;;;;;;;4859027;28;20001;-50
2022/04/08 06:24:54;;;;;;;;;;;;;;;;;;4861061;28;23701;-49
2022/04/08 06:27:20;;;;;;;;;;;;;;;;;;4814969;28;20471;-49
2022/04/08 06:29:45;;;;;;;;;;;;;;;;;;4774510;28;19920;-52
2022/04/08 06:32:10;;;;;;;;;;;;;;;;;;4818981;28;20058;-50
2022/04/08 06:34:35;;;;;;;;;;;;;;;;;;4918731;28;19924;-51
2022/04/08 06:37:00;;;;;;;;;;;;;;;;;;4949127;28;21358;-50
2022/04/08 06:39:25;;;;;;;;;;;;;;;;;;4962490;28;20439;-50
2022/04/08 06:41:51;;;;;;;;;;;;;;;;;;4966429;28;19920;-50
2022/04/08 06:44:16;;;;;;;;;;;;;;;;;;4956423;28;19926;-52
2022/04/08 06:46:41;;;;;;;;;;;;;;;;;;4952117;28;19923;-48
2022/04/08 06:49:06;;;;;;;;;;;;;;;;;;4932897;28;20302;-50
2022/04/08 06:51:31;;;;;;;;;;;;;;;;;;4950859;28;20014;-50
2022/04/08 06:53:56;;;;;;;;;;;;;;;;;;4959969;28;21310;-52
2022/04/08 06:56:21;;;;;;;;;;;;;;;;;;4946513;28;20886;-51
2022/04/08 06:58:47;;;;;;;;;;;;;;;;;;4924347;28;20677;-51
2022/04/08 07:01:12;;;;;;;;;;;;;;;;;;4929283;28;20102;-47
2022/04/08 07:03:37;;;;;;;;;;;;;;;;;;4922889;28;20484;-51
2022/04/08 07:06:03;;;;;;;;;;;;;;;;;;4954446;28;21925;-50
2022/04/08 07:08:28;;;;;;;;;;;;;;;;;;4940224;28;19920;-51
2022/04/08 07:10:53;;;;;;;;;;;;;;;;;;4933535;28;19931;-50
2022/04/08 07:13:18;;;;;;;;;;;;;;;;;;4889495;28;23322;-52
2022/04/08 07:15:45;;;;;;;;;;;;;;;;;;4818625;28;19928;-52
2022/04/08 07:18:10;;;;;;;;;;;;;;;;;;4766774;28;21619;-51
2022/04/08 07:20:35;;;;;;;;;;;;;;;;;;4758204;28;21333;-50
2022/04/08 07:23:02;;;;;;;;;;;;;;;;;;4625601;28;22571;-51
2022/04/08 07:25:27;;;;;;;;;;;;;;;;;;4658126;28;20816;-51
2022/04/08 07:27:52;;;;;;;;;;;;;;;;;;4829321;28;21597;-52
2022/04/08 07:30:17;;;;;;;;;;;;;;;;;;4845064;28;20720;-50
2022/04/08 07:32:43;;;;;;;;;;;;;;;;;;4871777;28;19922;-49
2022/04/08 07:35:08;;;;;;;;;;;;;;;;;;4928748;28;19935;-51
2022/04/08 07:37:33;;;;;;;;;;;;;;;;;;4912557;28;20888;-53
2022/04/08 07:39:58;;;;;;;;;;;;;;;;;;4877659;28;20661;-51
2022/04/08 07:42:23;;;;;;;;;;;;;;;;;;4866929;28;19919;-51
2022/04/08 07:44:48;;;;;;;;;;;;;;;;;;4855357;28;20645;-51
2022/04/08 07:47:14;;;;;;;;;;;;;;;;;;4865027;28;20780;-50
2022/04/08 07:49:40;;;;;;;;;;;;;;;;;;4868952;28;21541;-52
2022/04/08 07:52:05;;;;;;;;;;;;;;;;;;4861806;28;19926;-51
2022/04/08 07:54:30;;;;;;;;;;;;;;;;;;4865406;28;21161;-54
2022/04/08 07:56:55;;;;;;;;;;;;;;;;;;4874928;28;19924;-53
2022/04/08 07:59:20;;;;;;;;;;;;;;;;;;4850157;22;22313;-51
2022/04/08 08:01:46;;;;;;;;;;;;;;;;;;4811411;28;21763;-51
2022/04/08 08:04:11;;;;;;;;;;;;;;;;;;4802113;28;22450;-52
2022/04/08 08:06:36;;;;;;;;;;;;;;;;;;4795494;28;19925;-53
2022/04/08 08:09:01;;;;;;;;;;;;;;;;;;4769008;28;20021;-53
2022/04/08 08:11:27;;;;;;;;;;;;;;;;;;4660442;28;19920;-53
2022/04/08 08:13:52;;;;;;;;;;;;;;;;;;4567896;28;19920;-51
2022/04/08 08:16:17;;;;;;;;;;;;;;;;;;4661110;28;21619;-50
2022/04/08 08:18:42;;;;;;;;;;;;;;;;;;4716318;28;20588;-51
2022/04/08 08:21:08;;;;;;;;;;;;;;;;;;4739355;28;20182;-49
2022/04/08 08:23:33;;;;;;;;;;;;;;;;;;4738260;28;21548;-53
2022/04/08 08:25:58;;;;;;;;;;;;;;;;;;4740002;28;24025;-52
2022/04/08 08:28:23;;;;;;;;;;;;;;;;;;4617158;28;23454;-53
2022/04/08 08:30:48;;;;;;;;;;;;;;;;;;4606132;28;21935;-50
2022/04/08 08:33:13;;;;;;;;;;;;;;;;;;4733456;28;20547;-51
2022/04/08 08:35:38;;;;;;;;;;;;;;;;;;4770791;28;21461;-50
2022/04/08 08:38:06;;;;;;;;;;;;;;;;;;4782071;28;20620;-50
2022/04/08 08:40:34;;;;;;;;;;;;;;;;;;4805875;28;20684;-53
2022/04/08 08:42:59;;;;;;;;;;;;;;;;;;4815973;28;24349;-50
2022/04/08 08:45:29;;;;;;;;;;;;;;;;;;4808778;28;19920;-50
2022/04/08 08:47:56;;;;;;;;;;;;;;;;;;4815469;28;19920;-51
2022/04/08 08:50:21;;;;;;;;;;;;;;;;;;4803781;28;22118;-51
2022/04/08 08:52:46;;;;;;;;;;;;;;;;;;4800333;28;19920;-50
2022/04/08 08:55:12;;;;;;;;;;;;;;;;;;4770930;28;20367;-50
2022/04/08 08:57:37;;;;;;;;;;;;;;;;;;4788077;28;20563;-53
2022/04/08 09:00:03;;;;;;;;;;;;;;;;;;4769108;28;19998;-51
2022/04/08 09:02:31;;;;;;;;;;;;;;;;;;4772541;28;23586;-51
2022/04/08 09:04:56;;;;;;;;;;;;;;;;;;4793850;28;20528;-51
2022/04/08 09:07:21;;;;;;;;;;;;;;;;;;4763761;28;19955;-50
2022/04/08 09:09:46;;;;;;;;;;;;;;;;;;4734295;28;20601;-50
2022/04/08 09:12:11;;;;;;;;;;;;;;;;;;4673498;28;24694;-50
2022/04/08 09:14:37;;;;;;;;;;;;;;;;;;4658308;28;19924;-51
2022/04/08 09:17:02;;;;;;;;;;;;;;;;;;4613844;28;21192;-52
2022/04/08 09:19:27;;;;;;;;;;;;;;;;;;4600005;28;22500;-51
2022/04/08 09:21:52;;;;;;;;;;;;;;;;;;4561162;28;20953;-51
2022/04/08 09:24:18;;;;;;;;;;;;;;;;;;4479929;28;20066;-49
2022/04/08 09:26:43;;;;;;;;;;;;;;;;;;4570507;28;19968;-51
2022/04/08 09:29:08;;;;;;;;;;;;;;;;;;4618504;28;26048;-51
2022/04/08 09:31:33;;;;;;;;;;;;;;;;;;4752433;28;19924;-54
2022/04/08 09:33:58;;;;;;;;;;;;;;;;;;4733213;28;19966;-50
2022/04/08 09:36:23;;;;;;;;;;;;;;;;;;4733952;28;21455;-51
2022/04/08 09:38:49;;;;;;;;;;;;;;;;;;4759153;28;20057;-50
2022/04/08 09:41:15;;;;;;;;;;;;;;;;;;4637811;28;21896;-52
2022/04/08 09:43:40;;;;;;;;;;;;;;;;;;4736495;28;19920;-51
2022/04/08 09:46:05;;;;;;;;;;;;;;;;;;4769551;28;20193;-51
2022/04/08 09:48:31;;;;;;;;;;;;;;;;;;4730494;28;23282;-52
2022/04/08 09:50:56;;;;;;;;;;;;;;;;;;4723778;28;19920;-52
2022/04/08 09:53:21;;;;;;;;;;;;;;;;;;4730692;28;20058;-51
2022/04/08 09:55:46;;;;;;;;;;;;;;;;;;4665940;28;21556;-51
2022/04/08 09:58:12;;;;;;;;;;;;;;;;;;4708678;28;21746;-53
2022/04/08 10:00:37;;;;;;;;;;;;;;;;;;4762889;28;20791;-54
2022/04/08 10:03:02;;;;;;;;;;;;;;;;;;4770520;28;22321;-55
2022/04/08 10:05:27;;;;;;;;;;;;;;;;;;4766013;28;23024;-51
2022/04/08 10:07:52;;;;;;;;;;;;;;;;;;4749759;28;19920;-51
2022/04/08 10:10:18;;;;;;;;;;;;;;;;;;4742478;28;21886;-55
2022/04/08 10:12:43;;;;;;;;;;;;;;;;;;4740505;28;24577;-52
2022/04/08 10:15:08;;;;;;;;;;;;;;;;;;4757574;28;20023;-52
2022/04/08 10:17:34;;;;;;;;;;;;;;;;;;4772398;28;24497;-51
2022/04/08 10:19:59;;;;;;;;;;;;;;;;;;4775141;28;19927;-50
2022/04/08 10:22:24;;;;;;;;;;;;;;;;;;4796426;28;19947;-54
2022/04/08 10:24:49;;;;;;;;;;;;;;;;;;4822898;28;19927;-51
2022/04/08 10:27:14;;;;;;;;;;;;;;;;;;4808756;28;19928;-53
2022/04/08 10:29:39;;;;;;;;;;;;;;;;;;4797238;28;20006;-54
2022/04/08 10:32:05;;;;;;;;;;;;;;;;;;4799457;28;19925;-54
2022/04/08 10:34:34;;;;;;;;;;;;;;;;;;4796882;28;19951;-51
2022/04/08 10:36:59;;;;;;;;;;;;;;;;;;4764362;28;21066;-54
2022/04/08 10:39:24;;;;;;;;;;;;;;;;;;4722212;28;23941;-52
2022/04/08 10:41:49;;;;;;;;;;;;;;;;;;4769999;28;19921;-52
2022/04/08 10:44:14;;;;;;;;;;;;;;;;;;4814994;28;24228;-52
2022/04/08 10:46:40;;;;;;;;;;;;;;;;;;4819120;28;19935;-53
2022/04/08 10:49:05;;;;;;;;;;;;;;;;;;4784472;28;19934;-53
2022/04/08 10:51:30;;;;;;;;;;;;;;;;;;4793764;28;22078;-50
2022/04/08 10:53:56;;;;;;;;;;;;;;;;;;4782747;28;19932;-53
2022/04/08 10:56:21;;;;;;;;;;;;;;;;;;4806038;28;21259;-50
2022/04/08 10:58:46;;;;;;;;;;;;;;;;;;4787497;28;20975;-50
2022/04/08 11:01:11;;;;;;;;;;;;;;;;;;4768336;28;19925;-51
2022/04/08 11:03:39;;;;;;;;;;;;;;;;;;4818219;28;21304;-53
2022/04/08 11:06:04;;;;;;;;;;;;;;;;;;4813770;28;19990;-53
2022/04/08 11:08:29;;;;;;;;;;;;;;;;;;4818310;28;19921;-51
2022/04/08 11:10:54;;;;;;;;;;;;;;;;;;4818631;28;23428;-51
2022/04/08 11:13:20;;;;;;;;;;;;;;;;;;4826851;28;19921;-52
2022/04/08 11:15:45;;;;;;;;;;;;;;;;;;4816435;28;24819;-54
2022/04/08 11:18:11;;;;;;;;;;;;;;;;;;4827692;28;21345;-55
2022/04/08 11:20:36;;;;;;;;;;;;;;;;;;4821423;28;21315;-53
2022/04/08 11:23:01;;;;;;;;;;;;;;;;;;4792617;28;19928;-54
2022/04/08 11:25:26;;;;;;;;;;;;;;;;;;4790487;28;22123;-50
2022/04/08 11:27:51;;;;;;;;;;;;;;;;;;4793000;28;21877;-51
2022/04/08 11:30:16;;;;;;;;;;;;;;;;;;4761583;28;21690;-52
2022/04/08 11:32:41;;;;;;;;;;;;;;;;;;4758151;28;21247;-54
2022/04/08 11:35:06;;;;;;;;;;;;;;;;;;4777258;28;19924;-51
2022/04/08 11:37:31;;;;;;;;;;;;;;;;;;4787414;28;22432;-51
2022/04/08 11:39:57;;;;;;;;;;;;;;;;;;4796308;28;19920;-50
2022/04/08 11:42:22;;;;;;;;;;;;;;;;;;4821540;28;20000;-51
2022/04/08 11:44:47;;;;;;;;;;;;;;;;;;4789672;28;22284;-55
2022/04/08 11:47:14;;;;;;;;;;;;;;;;;;4798333;28;19983;-51
2022/04/08 11:49:39;;;;;;;;;;;;;;;;;;4797533;28;22704;-52
2022/04/08 11:52:04;;;;;;;;;;;;;;;;;;4778060;28;19985;-52
2022/04/08 11:54:29;;;;;;;;;;;;;;;;;;4827502;28;28798;-51
2022/04/08 11:56:54;;;;;;;;;;;;;;;;;;4851367;28;21319;-52
2022/04/08 11:59:20;;;;;;;;;;;;;;;;;;4839139;28;19928;-50
2022/04/08 12:01:45;;;;;;;;;;;;;;;;;;4802349;28;20649;-53
2022/04/08 12:04:10;;;;;;;;;;;;;;;;;;4823493;28;20061;-53
2022/04/08 12:06:35;;;;;;;;;;;;;;;;;;4713145;28;20768;-51
2022/04/08 12:09:00;;;;;;;;;;;;;;;;;;4741484;28;35932;-50
2022/04/08 12:11:26;;;;;;;;;;;;;;;;;;4755104;22;19920;-81
2022/04/08 12:13:51;;;;;;;;;;;;;;;;;;4997201;27;20684;-82
2022/04/08 12:16:16;;;;;;;;;;;;;;;;;;5002314;27;21279;-82
2022/04/08 12:18:41;;;;;;;;;;;;;;;;;;4930979;27;19959;-83
2022/04/08 12:21:06;;;;;;;;;;;;;;;;;;4901231;27;22178;-83
2022/04/08 12:23:31;;;;;;;;;;;;;;;;;;4954615;28;21112;-83
2022/04/08 12:25:56;;;;;;;;;;;;;;;;;;4976551;28;20297;-83
2022/04/08 12:28:22;;;;;;;;;;;;;;;;;;4931333;27;22557;-84
2022/04/08 12:30:47;;;;;;;;;;;;;;;;;;4983083;27;19919;-83
2022/04/08 12:33:12;;;;;;;;;;;;;;;;;;5029406;27;19931;-83
2022/04/08 12:35:37;;;;;;;;;;;;;;;;;;5009365;27;19963;-83
2022/04/08 12:38:04;;;;;;;;;;;;;;;;;;5030849;27;20283;-83
2022/04/08 12:40:29;;;;;;;;;;;;;;;;;;5052097;28;19920;-83
2022/04/08 12:42:54;;;;;;;;;;;;;;;;;;5054155;28;20058;-83
2022/04/08 12:45:19;;;;;;;;;;;;;;;;;;5029660;28;19920;-83
2022/04/08 12:47:45;;;;;;;;;;;;;;;;;;5056652;28;19920;-83
2022/04/08 12:50:13;;;;;;;;;;;;;;;;;;4951270;28;19930;-81
2022/04/08 12:52:38;;;;;;;;;;;;;;;;;;4970423;27;19965;-82
2022/04/08 12:55:03;;;;;;;;;;;;;;;;;;4988647;28;19923;-82
2022/04/08 12:57:31;;;;;;;;;;;;;;;;;;5008913;27;19951;-82
2022/04/08 12:59:56;;;;;;;;;;;;;;;;;;4940325;28;20146;-82
2022/04/08 13:02:21;;;;;;;;;;;;;;;;;;4915424;28;19920;-80
2022/04/08 13:04:46;;;;;;;;;;;;;;;;;;4934078;28;23463;-82
2022/04/08 13:07:12;;;;;;;;;;;;;;;;;;4908286;28;21075;-82
2022/04/08 13:09:37;;;;;;;;;;;;;;;;;;4905472;28;19920;-82
2022/04/08 13:12:02;;;;;;;;;;;;;;;;;;4891459;28;20063;-82
2022/04/08 13:14:27;;;;;;;;;;;;;;;;;;4900401;28;20018;-82
2022/04/08 13:16:52;;;;;;;;;;;;;;;;;;4912854;28;21145;-81
2022/04/08 13:19:17;;;;;;;;;;;;;;;;;;4964931;28;19920;-82
2022/04/08 13:21:43;;;;;;;;;;;;;;;;;;4982598;28;19953;-82
2022/04/08 13:24:08;;;;;;;;;;;;;;;;;;4983953;28;19979;-82
2022/04/08 13:26:33;;;;;;;;;;;;;;;;;;4996876;28;19920;-82
2022/04/08 13:28:58;;;;;;;;;;;;;;;;;;5016938;28;19952;-81
2022/04/08 13:31:23;;;;;;;;;;;;;;;;;;5019572;28;21018;-81
2022/04/08 13:33:48;;;;;;;;;;;;;;;;;;5005118;28;19916;-83
2022/04/08 13:36:13;;;;;;;;;;;;;;;;;;5072480;28;20397;-82
2022/04/08 13:38:39;;;;;;;;;;;;;;;;;;5068238;28;19927;-82
2022/04/08 13:41:04;;;;;;;;;;;;;;;;;;5052779;28;19943;-82
2022/04/08 13:43:30;;;;;;;;;;;;;;;;;;5053548;28;20094;-82
2022/04/08 13:45:55;;;;;;;;;;;;;;;;;;5061714;28;19931;-83
2022/04/08 13:48:20;;;;;;;;;;;;;;;;;;5057569;28;20380;-83
2022/04/08 13:50:45;;;;;;;;;;;;;;;;;;5063833;28;20545;-81
2022/04/08 13:53:10;;;;;;;;;;;;;;;;;;5063187;28;19965;-82
2022/04/08 13:55:35;;;;;;;;;;;;;;;;;;5068161;28;19974;-84
2022/04/08 13:58:01;;;;;;;;;;;;;;;;;;5033063;28;21143;-82
2022/04/08 14:00:26;;;;;;;;;;;;;;;;;;5059050;28;19920;-82
2022/04/08 14:02:51;;;;;;;;;;;;;;;;;;5055549;28;20578;-83
2022/04/08 14:05:16;;;;;;;;;;;;;;;;;;5047140;28;20759;-82
2022/04/08 14:07:41;;;;;;;;;;;;;;;;;;5067465;28;20482;-83
2022/04/08 14:10:07;;;;;;;;;;;;;;;;;;5078327;28;20015;-83
2022/04/08 14:12:32;;;;;;;;;;;;;;;;;;5085773;28;20025;-83
2022/04/08 14:14:57;;;;;;;;;;;;;;;;;;5084579;28;20636;-82
2022/04/08 14:17:22;;;;;;;;;;;;;;;;;;5084419;28;19912;-82
2022/04/08 14:19:47;;;;;;;;;;;;;;;;;;5082315;28;19931;-82
2022/04/08 14:22:12;;;;;;;;;;;;;;;;;;5084101;28;19927;-82
2022/04/08 14:24:37;;;;;;;;;;;;;;;;;;5083028;28;20830;-82
2022/04/08 14:27:02;;;;;;;;;;;;;;;;;;5086096;28;19920;-82
2022/04/08 14:29:28;;;;;;;;;;;;;;;;;;5087576;28;20287;-83
2022/04/08 14:31:53;;;;;;;;;;;;;;;;;;5089189;28;19927;-83
2022/04/08 14:34:18;;;;;;;;;;;;;;;;;;5085649;28;19951;-82
2022/04/08 14:36:43;;;;;;;;;;;;;;;;;;5089238;28;19943;-82
2022/04/08 14:39:08;;;;;;;;;;;;;;;;;;5088850;28;20382;-82
2022/04/08 14:41:33;;;;;;;;;;;;;;;;;;5091414;28;19927;-83
2022/04/08 14:44:00;;;;;;;;;;;;;;;;;;5093223;28;19932;-83
2022/04/08 14:46:26;;;;;;;;;;;;;;;;;;5080696;28;19919;-83
2022/04/08 14:48:51;;;;;;;;;;;;;;;;;;5097467;28;20348;-85
2022/04/08 14:51:17;;;;;;;;;;;;;;;;;;5095905;28;19912;-83
2022/04/08 14:53:43;;;;;;;;;;;;;;;;;;5091801;28;19942;-83
2022/04/08 14:56:08;;;;;;;;;;;;;;;;;;5090953;28;20325;-83
2022/04/08 14:58:33;;;;;;;;;;;;;;;;;;5098529;28;19912;-83
2022/04/08 15:00:58;;;;;;;;;;;;;;;;;;5100443;28;19916;-84
2022/04/08 15:03:23;;;;;;;;;;;;;;;;;;5099948;28;19923;-83
2022/04/08 15:05:48;;;;;;;;;;;;;;;;;;5099854;28;19916;-83
2022/04/08 15:08:13;;;;;;;;;;;;;;;;;;5100402;28;19966;-83
2022/04/08 15:10:38;;;;;;;;;;;;;;;;;;5102254;28;19908;-83
2022/04/08 15:13:03;;;;;;;;;;;;;;;;;;5094640;28;19920;-83
2022/04/08 15:15:29;;;;;;;;;;;;;;;;;;5102633;28;19923;-83
2022/04/08 15:17:54;;;;;;;;;;;;;;;;;;5102890;28;20003;-82
2022/04/08 15:20:19;;;;;;;;;;;;;;;;;;5102369;28;19912;-83
2022/04/08 15:22:44;;;;;;;;;;;;;;;;;;5103270;28;19912;-83
2022/04/08 15:25:09;;;;;;;;;;;;;;;;;;5103182;28;19942;-83
2022/04/08 15:27:34;;;;;;;;;;;;;;;;;;5106733;28;19912;-83
2022/04/08 15:30:00;;;;;;;;;;;;;;;;;;5106031;28;20302;-83
2022/04/08 15:32:27;;;;;;;;;;;;;;;;;;5105543;28;20367;-82
2022/04/08 15:34:52;;;;;;;;;;;;;;;;;;5106795;28;20376;-83
2022/04/08 15:37:18;;;;;;;;;;;;;;;;;;5106787;28;19915;-83
2022/04/08 15:39:43;;;;;;;;;;;;;;;;;;5106612;28;19912;-83
2022/04/08 15:42:08;;;;;;;;;;;;;;;;;;5105197;28;19908;-82
2022/04/08 15:44:33;;;;;;;;;;;;;;;;;;5105244;28;20008;-83
2022/04/08 15:46:58;;;;;;;;;;;;;;;;;;5104554;28;19908;-83
2022/04/08 15:49:24;;;;;;;;;;;;;;;;;;5105698;28;19969;-83
2022/04/08 15:51:50;;;;;;;;;;;;;;;;;;5106033;28;19912;-83
2022/04/08 15:54:15;;;;;;;;;;;;;;;;;;5106051;28;19913;-82
2022/04/08 15:56:41;;;;;;;;;;;;;;;;;;5106032;28;19934;-84
2022/04/08 15:59:06;;;;;;;;;;;;;;;;;;5105151;28;20367;-84
2022/04/08 16:01:31;;;;;;;;;;;;;;;;;;5106837;28;20375;-83
2022/04/08 16:03:56;;;;;;;;;;;;;;;;;;5104680;28;19916;-81
2022/04/08 16:06:22;;;;;;;;;;;;;;;;;;5102246;28;19975;-81
2022/04/08 16:08:47;;;;;;;;;;;;;;;;;;5100694;28;20015;-81
2022/04/08 16:11:12;;;;;;;;;;;;;;;;;;5099507;28;19951;-81
2022/04/08 16:13:37;;;;;;;;;;;;;;;;;;5064528;28;19956;-79
2022/04/08 16:16:03;;;;;;;;;;;;;;;;;;5059798;28;19916;-79
2022/04/08 16:18:28;;;;;;;;;;;;;;;;;;5061791;28;19920;-79
2022/04/08 16:20:53;;;;;;;;;;;;;;;;;;5064089;28;20284;-79
2022/04/08 16:23:18;;;;;;;;;;;;;;;;;;5064418;28;19908;-79
2022/04/08 16:25:44;;;;;;;;;;;;;;;;;;5077365;28;20384;-80
2022/04/08 16:28:09;;;;;;;;;;;;;;;;;;5068954;28;19925;-79
2022/04/08 16:30:34;;;;;;;;;;;;;;;;;;5080854;28;19916;-80